sensor_id;sensor_type;location;lat;lon;timestamp;pressure;altitude;pressure_sealevel;temperature;humidity
47761;BME280;33524;55.434;38.520;2023-04-01T00:01:01;98911.75;;;1.00;99.35
47761;BME280;33524;55.434;38.520;2023-04-01T00:03:34;98903.91;;;1.02;99.31
47761;BME280;33524;55.434;38.520;2023-04-01T00:06:05;98909.09;;;1.02;98.71
47761;BME280;33524;55.434;38.520;2023-04-01T00:08:38;98904.91;;;0.99;99.16
47761;BME280;33524;55.434;38.520;2023-04-01T00:11:11;98907.50;;;0.99;99.45
47761;BME280;33524;55.434;38.520;2023-04-01T00:13:44;98915.91;;;1.03;98.42
47761;BME280;33524;55.434;38.520;2023-04-01T00:16:16;98914.34;;;1.00;98.98
47761;BME280;33524;55.434;38.520;2023-04-01T00:18:51;98908.50;;;0.97;99.33
47761;BME280;33524;55.434;38.520;2023-04-01T00:21:22;98917.28;;;0.94;99.67
47761;BME280;33524;55.434;38.520;2023-04-01T00:23:54;98911.19;;;0.95;99.70
47761;BME280;33524;55.434;38.520;2023-04-01T00:26:26;98918.22;;;0.93;100.00
47761;BME280;33524;55.434;38.520;2023-04-01T00:28:59;98918.09;;;0.95;99.97
47761;BME280;33524;55.434;38.520;2023-04-01T00:31:31;98916.44;;;0.94;99.63
47761;BME280;33524;55.434;38.520;2023-04-01T00:34:03;98918.22;;;0.93;99.58
47761;BME280;33524;55.434;38.520;2023-04-01T00:36:35;98925.03;;;0.94;99.86
47761;BME280;33524;55.434;38.520;2023-04-01T00:39:07;98926.72;;;0.95;99.67
47761;BME280;33524;55.434;38.520;2023-04-01T00:41:40;98930.41;;;0.91;100.00
47761;BME280;33524;55.434;38.520;2023-04-01T00:44:22;98930.56;;;0.88;100.00
47761;BME280;33524;55.434;38.520;2023-04-01T00:46:53;98926.06;;;0.92;100.00
47761;BME280;33524;55.434;38.520;2023-04-01T00:49:30;98923.38;;;0.93;100.00
47761;BME280;33524;55.434;38.520;2023-04-01T00:52:05;98917.47;;;0.91;100.00
47761;BME280;33524;55.434;38.520;2023-04-01T00:54:42;98919.31;;;0.89;100.00
47761;BME280;33524;55.434;38.520;2023-04-01T00:57:35;98917.63;;;0.88;100.00
47761;BME280;33524;55.434;38.520;2023-04-01T01:00:11;98915.03;;;0.88;100.00
47761;BME280;33524;55.434;38.520;2023-04-01T01:02:45;98919.31;;;0.89;100.00
47761;BME280;33524;55.434;38.520;2023-04-01T01:05:22;98917.97;;;0.82;100.00
47761;BME280;33524;55.434;38.520;2023-04-01T01:08:07;98908.63;;;0.79;100.00
47761;BME280;33524;55.434;38.520;2023-04-01T01:10:43;98914.47;;;0.83;100.00
47761;BME280;33524;55.434;38.520;2023-04-01T01:16:26;98914.53;;;0.82;100.00
47761;BME280;33524;55.434;38.520;2023-04-01T01:19:08;98908.69;;;0.78;100.00
47761;BME280;33524;55.434;38.520;2023-04-01T01:27:10;98910.63;;;0.74;100.00
47761;BME280;33524;55.434;38.520;2023-04-01T01:35:37;98916.47;;;0.78;100.00
47761;BME280;33524;55.434;38.520;2023-04-01T01:38:15;98921.63;;;0.78;100.00
47761;BME280;33524;55.434;38.520;2023-04-01T01:40:50;98920.72;;;0.79;100.00
47761;BME280;33524;55.434;38.520;2023-04-01T01:43:28;98921.31;;;0.84;100.00
47761;BME280;33524;55.434;38.520;2023-04-01T01:46:06;98920.28;;;0.87;100.00
47761;BME280;33524;55.434;38.520;2023-04-01T01:48:42;98922.97;;;0.85;100.00
47761;BME280;33524;55.434;38.520;2023-04-01T01:51:14;98913.13;;;0.76;100.00
47761;BME280;33524;55.434;38.520;2023-04-01T01:53:47;98933.16;;;0.88;100.00
47761;BME280;33524;55.434;38.520;2023-04-01T01:56:23;98933.16;;;0.88;100.00
47761;BME280;33524;55.434;38.520;2023-04-01T01:59:03;98931.38;;;0.89;100.00
47761;BME280;33524;55.434;38.520;2023-04-01T02:01:41;98934.66;;;0.92;100.00
47761;BME280;33524;55.434;38.520;2023-04-01T02:04:17;98932.06;;;0.92;100.00
47761;BME280;33524;55.434;38.520;2023-04-01T02:06:56;98938.16;;;0.91;100.00
47761;BME280;33524;55.434;38.520;2023-04-01T02:09:30;98937.31;;;0.91;100.00
47761;BME280;33524;55.434;38.520;2023-04-01T02:12:08;98933.63;;;0.95;100.00
47761;BME280;33524;55.434;38.520;2023-04-01T02:15:08;98942.34;;;0.94;100.00
47761;BME280;33524;55.434;38.520;2023-04-01T02:17:51;98937.22;;;0.92;100.00
47761;BME280;33524;55.434;38.520;2023-04-01T02:20:25;98941.31;;;0.96;99.71
47761;BME280;33524;55.434;38.520;2023-04-01T02:22:59;98934.66;;;0.92;99.87
47761;BME280;33524;55.434;38.520;2023-04-01T02:25:34;98933.34;;;0.85;100.00
47761;BME280;33524;55.434;38.520;2023-04-01T02:28:07;98927.06;;;0.89;100.00
47761;BME280;33524;55.434;38.520;2023-04-01T02:30:41;98930.56;;;0.88;100.00
47761;BME280;33524;55.434;38.520;2023-04-01T02:33:13;98927.97;;;0.88;99.94
47761;BME280;33524;55.434;38.520;2023-04-01T02:35:44;98927.22;;;0.86;100.00
47761;BME280;33524;55.434;38.520;2023-04-01T02:38:15;98933.34;;;0.85;100.00
47761;BME280;33524;55.434;38.520;2023-04-01T02:40:50;98936.66;;;0.87;100.00
47761;BME280;33524;55.434;38.520;2023-04-01T02:43:22;98940.09;;;0.88;100.00
47761;BME280;33524;55.434;38.520;2023-04-01T02:45:54;98944.50;;;0.86;100.00
47761;BME280;33524;55.434;38.520;2023-04-01T02:48:26;98944.66;;;0.83;100.00
47761;BME280;33524;55.434;38.520;2023-04-01T02:50:57;98953.53;;;0.78;100.00
47761;BME280;33524;55.434;38.520;2023-04-01T02:53:29;98956.22;;;0.77;100.00
47761;BME280;33524;55.434;38.520;2023-04-01T02:56:01;98951.88;;;0.77;100.00
47761;BME280;33524;55.434;38.520;2023-04-01T02:58:33;98956.03;;;0.80;100.00
47761;BME280;33524;55.434;38.520;2023-04-01T03:01:06;98953.28;;;0.83;100.00
47761;BME280;33524;55.434;38.520;2023-04-01T03:03:38;98962.72;;;0.84;100.00
47761;BME280;33524;55.434;38.520;2023-04-01T03:06:11;98961.53;;;0.74;100.00
47761;BME280;33524;55.434;38.520;2023-04-01T03:08:42;98962.28;;;0.76;100.00
47761;BME280;33524;55.434;38.520;2023-04-01T03:11:14;98972.50;;;0.79;100.00
47761;BME280;33524;55.434;38.520;2023-04-01T03:13:45;98971.56;;;0.80;100.00
47761;BME280;33524;55.434;38.520;2023-04-01T03:16:17;98957.87;;;0.78;100.00
47761;BME280;33524;55.434;38.520;2023-04-01T03:18:51;98978.09;;;0.87;100.00
47761;BME280;33524;55.434;38.520;2023-04-01T03:21:24;98974.41;;;0.91;100.00
47761;BME280;33524;55.434;38.520;2023-04-01T03:23:55;98979.41;;;0.94;100.00
47761;BME280;33524;55.434;38.520;2023-04-01T03:26:26;98980.34;;;0.93;100.00
47761;BME280;33524;55.434;38.520;2023-04-01T03:28:58;98968.03;;;0.97;100.00
47761;BME280;33524;55.434;38.520;2023-04-01T03:31:30;98984.25;;;1.00;99.76
47761;BME280;33524;55.434;38.520;2023-04-01T03:34:02;98978.50;;;0.95;100.00
47761;BME280;33524;55.434;38.520;2023-04-01T03:36:34;98974.97;;;0.96;100.00
47761;BME280;33524;55.434;38.520;2023-04-01T03:39:05;98973.31;;;0.95;100.00
47761;BME280;33524;55.434;38.520;2023-04-01T03:41:38;98968.03;;;0.97;100.00
47761;BME280;33524;55.434;38.520;2023-04-01T03:44:10;98970.19;;;1.05;100.00
47761;BME280;33524;55.434;38.520;2023-04-01T03:46:44;98967.13;;;1.14;100.00
47761;BME280;33524;55.434;38.520;2023-04-01T03:49:16;98972.84;;;1.19;100.00
47761;BME280;33524;55.434;38.520;2023-04-01T03:51:48;98974.34;;;1.23;99.98
47761;BME280;33524;55.434;38.520;2023-04-01T03:54:20;98983.25;;;1.33;99.56
47761;BME280;33524;55.434;38.520;2023-04-01T03:56:52;98990.00;;;1.36;99.69
47761;BME280;33524;55.434;38.520;2023-04-01T03:59:24;98992.25;;;1.42;99.00
47761;BME280;33524;55.434;38.520;2023-04-01T04:01:56;98994.84;;;1.42;98.31
47761;BME280;33524;55.434;38.520;2023-04-01T04:04:29;98997.34;;;1.44;98.43
47761;BME280;33524;55.434;38.520;2023-04-01T04:07:01;98998.84;;;1.48;98.08
47761;BME280;33524;55.434;38.520;2023-04-01T04:09:35;99006.62;;;1.48;97.78
47761;BME280;33524;55.434;38.520;2023-04-01T04:12:07;99008.47;;;1.46;98.40
47761;BME280;33524;55.434;38.520;2023-04-01T04:14:39;99014.56;;;1.45;98.00
47761;BME280;33524;55.434;38.520;2023-04-01T04:17:11;99010.47;;;1.40;98.28
47761;BME280;33524;55.434;38.520;2023-04-01T04:19:46;99017.06;;;1.46;97.63
47761;BME280;33524;55.434;38.520;2023-04-01T04:22:19;99016.75;;;1.36;98.26
47761;BME280;33524;55.434;38.520;2023-04-01T04:24:51;99007.00;;;1.26;99.09
47761;BME280;33524;55.434;38.520;2023-04-01T04:27:24;99017.75;;;1.34;99.10
47761;BME280;33524;55.434;38.520;2023-04-01T04:29:56;99027.28;;;1.33;98.99
47761;BME280;33524;55.434;38.520;2023-04-01T04:32:28;99029.88;;;1.33;97.79
47761;BME280;33524;55.434;38.520;2023-04-01T04:35:00;99028.13;;;1.34;97.96
47761;BME280;33524;55.434;38.520;2023-04-01T04:37:31;99030.72;;;1.34;98.31
47761;BME280;33524;55.434;38.520;2023-04-01T04:40:03;99042.56;;;1.38;98.53
47761;BME280;33524;55.434;38.520;2023-04-01T04:42:35;99041.16;;;1.32;97.99
47761;BME280;33524;55.434;38.520;2023-04-01T04:45:07;99033.84;;;1.25;98.24
47761;BME280;33524;55.434;38.520;2023-04-01T04:47:41;99027.28;;;1.33;97.68
47761;BME280;33524;55.434;38.520;2023-04-01T04:50:15;99045.75;;;1.43;97.31
47761;BME280;33524;55.434;38.520;2023-04-01T04:52:48;99036.22;;;1.44;97.40
47761;BME280;33524;55.434;38.520;2023-04-01T04:55:19;99043.28;;;1.56;97.85
47761;BME280;33524;55.434;38.520;2023-04-01T04:57:51;99042.75;;;1.65;97.62
47761;BME280;33524;55.434;38.520;2023-04-01T05:00:23;99047.22;;;1.77;97.35
47761;BME280;33524;55.434;38.520;2023-04-01T05:02:55;99046.53;;;1.90;98.39
47761;BME280;33524;55.434;38.520;2023-04-01T05:05:28;99047.13;;;2.09;97.70
47761;BME280;33524;55.434;38.520;2023-04-01T05:08:00;99029.44;;;2.30;96.00
47761;BME280;33524;55.434;38.520;2023-04-01T05:10:33;99054.56;;;2.58;95.01
47761;BME280;33524;55.434;38.520;2023-04-01T05:13:04;99054.34;;;2.76;93.60
47761;BME280;33524;55.434;38.520;2023-04-01T05:15:36;99053.25;;;2.80;93.05
47761;BME280;33524;55.434;38.520;2023-04-01T05:18:08;99054.88;;;2.81;92.28
47761;BME280;33524;55.434;38.520;2023-04-01T05:20:49;99065.66;;;2.75;92.24
47761;BME280;33524;55.434;38.520;2023-04-01T05:23:23;99066.13;;;2.81;91.61
47761;BME280;33524;55.434;38.520;2023-04-01T05:25:56;99071.59;;;2.77;91.80
47761;BME280;33524;55.434;38.520;2023-04-01T05:28:28;99050.44;;;2.69;89.76
47761;BME280;33524;55.434;38.520;2023-04-01T05:31:01;99078.09;;;2.84;89.77
47761;BME280;33524;55.434;38.520;2023-04-01T05:33:35;99066.97;;;2.82;90.10
47761;BME280;33524;55.434;38.520;2023-04-01T05:36:10;99064.28;;;2.83;90.71
47761;BME280;33524;55.434;38.520;2023-04-01T05:38:43;99074.66;;;2.83;91.55
47761;BME280;33524;55.434;38.520;2023-04-01T05:41:17;99075.66;;;2.95;90.00
47761;BME280;33524;55.434;38.520;2023-04-01T05:43:50;99077.03;;;3.01;90.65
47761;BME280;33524;55.434;38.520;2023-04-01T05:46:24;99077.97;;;3.00;90.16
47761;BME280;33524;55.434;38.520;2023-04-01T05:48:58;99081.97;;;2.91;90.80
47761;BME280;33524;55.434;38.520;2023-04-01T05:51:30;99078.47;;;2.78;90.40
47761;BME280;33524;55.434;38.520;2023-04-01T05:54:05;99072.53;;;2.76;91.00
47761;BME280;33524;55.434;38.520;2023-04-01T05:56:37;99081.88;;;2.93;90.00
47761;BME280;33524;55.434;38.520;2023-04-01T05:59:11;99078.81;;;2.86;89.69
47761;BME280;33524;55.434;38.520;2023-04-01T06:01:43;99088.03;;;2.77;89.66
47761;BME280;33524;55.434;38.520;2023-04-01T06:04:16;99094.31;;;2.73;89.51
47761;BME280;33524;55.434;38.520;2023-04-01T06:06:49;99089.97;;;2.74;89.44
47761;BME280;33524;55.434;38.520;2023-04-01T06:09:28;99090.69;;;2.76;89.24
47761;BME280;33524;55.434;38.520;2023-04-01T06:12:24;99093.69;;;2.70;89.84
47761;BME280;33524;55.434;38.520;2023-04-01T06:15:08;99100.81;;;2.80;89.08
47761;BME280;33524;55.434;38.520;2023-04-01T06:21:17;99096.03;;;3.01;89.03
47761;BME280;33524;55.434;38.520;2023-04-01T06:24:20;99098.19;;;2.95;88.42
47761;BME280;33524;55.434;38.520;2023-04-01T06:32:46;99102.84;;;2.90;88.94
47761;BME280;33524;55.434;38.520;2023-04-01T06:35:27;99111.44;;;3.05;89.93
47761;BME280;33524;55.434;38.520;2023-04-01T06:43:54;99123.75;;;3.30;87.85
47761;BME280;33524;55.434;38.520;2023-04-01T06:56:06;99122.19;;;3.54;85.78
47761;BME280;33524;55.434;38.520;2023-04-01T06:58:46;99130.72;;;3.56;85.55
47761;BME280;33524;55.434;38.520;2023-04-01T07:01:41;99132.19;;;3.60;86.04
47761;BME280;33524;55.434;38.520;2023-04-01T07:06:54;99123.56;;;3.60;86.30
47761;BME280;33524;55.434;38.520;2023-04-01T07:09:38;99132.13;;;3.62;86.77
47761;BME280;33524;55.434;38.520;2023-04-01T07:12:54;99136.38;;;3.63;85.64
47761;BME280;33524;55.434;38.520;2023-04-01T07:15:20;99138.47;;;3.71;85.48
47761;BME280;33524;55.434;38.520;2023-04-01T07:18:06;99142.72;;;3.72;85.31
47761;BME280;33524;55.434;38.520;2023-04-01T07:20:40;99144.75;;;3.81;85.96
47761;BME280;33524;55.434;38.520;2023-04-01T07:23:25;99144.84;;;4.19;85.22
47761;BME280;33524;55.434;38.520;2023-04-01T07:26:18;99150.94;;;4.45;84.11
47761;BME280;33524;55.434;38.520;2023-04-01T07:28:54;99152.94;;;4.55;83.02
47761;BME280;33524;55.434;38.520;2023-04-01T07:34:26;99149.69;;;4.64;81.07
47761;BME280;33524;55.434;38.520;2023-04-01T07:37:10;99153.63;;;4.44;81.83
47761;BME280;33524;55.434;38.520;2023-04-01T07:40:11;99148.44;;;4.70;81.39
47761;BME280;33524;55.434;38.520;2023-04-01T07:42:57;99160.09;;;4.90;80.01
47761;BME280;33524;55.434;38.520;2023-04-01T07:45:41;99158.31;;;4.64;79.45
47761;BME280;33524;55.434;38.520;2023-04-01T07:51:52;99165.09;;;4.67;80.18
47761;BME280;33524;55.434;38.520;2023-04-01T07:54:13;99166.53;;;4.45;81.55
47761;BME280;33524;55.434;38.520;2023-04-01T07:59:53;99172.28;;;4.76;79.33
47761;BME280;33524;55.434;38.520;2023-04-01T08:02:43;99178.56;;;4.74;80.34
47761;BME280;33524;55.434;38.520;2023-04-01T08:05:26;99187.75;;;5.29;79.06
47761;BME280;33524;55.434;38.520;2023-04-01T08:22:15;99194.16;;;5.62;77.39
47761;BME280;33524;55.434;38.520;2023-04-01T08:24:52;99191.06;;;5.57;77.20
47761;BME280;33524;55.434;38.520;2023-04-01T08:27:32;99201.25;;;5.60;77.23
47761;BME280;33524;55.434;38.520;2023-04-01T08:30:18;99201.00;;;5.76;77.81
47761;BME280;33524;55.434;38.520;2023-04-01T08:32:57;99209.50;;;5.91;77.36
47761;BME280;33524;55.434;38.520;2023-04-01T08:35:55;99214.47;;;6.06;76.24
47761;BME280;33524;55.434;38.520;2023-04-01T08:38:34;99193.50;;;6.08;73.96
47761;BME280;33524;55.434;38.520;2023-04-01T08:50:51;99206.56;;;6.43;74.52
47761;BME280;33524;55.434;38.520;2023-04-01T08:56:33;99198.78;;;6.77;73.13
47761;BME280;33524;55.434;38.520;2023-04-01T08:59:57;99221.06;;;7.17;75.36
47761;BME280;33524;55.434;38.520;2023-04-01T09:02:32;99207.72;;;7.54;71.46
47761;BME280;33524;55.434;38.520;2023-04-01T09:05:55;99230.41;;;7.64;69.91
47761;BME280;33524;55.434;38.520;2023-04-01T09:08:32;99234.56;;;6.88;70.55
47761;BME280;33524;55.434;38.520;2023-04-01T09:20:26;99239.13;;;7.31;70.36
47761;BME280;33524;55.434;38.520;2023-04-01T09:23:10;99250.31;;;7.44;74.56
47761;BME280;33524;55.434;38.520;2023-04-01T09:28:50;99228.44;;;7.12;68.08
47761;BME280;33524;55.434;38.520;2023-04-01T09:34:51;99250.53;;;7.07;68.96
47761;BME280;33524;55.434;38.520;2023-04-01T09:37:49;99252.19;;;7.87;68.75
47761;BME280;33524;55.434;38.520;2023-04-01T09:40:47;99253.28;;;7.51;67.79
47761;BME280;33524;55.434;38.520;2023-04-01T09:43:29;99257.41;;;8.42;72.79
47761;BME280;33524;55.434;38.520;2023-04-01T09:46:16;99268.38;;;7.81;68.48
47761;BME280;33524;55.434;38.520;2023-04-01T09:52:18;99277.66;;;7.40;68.19
47761;BME280;33524;55.434;38.520;2023-04-01T10:01:01;99274.31;;;7.16;70.44
47761;BME280;33524;55.434;38.520;2023-04-01T10:12:50;99273.28;;;9.04;65.78
47761;BME280;33524;55.434;38.520;2023-04-01T10:18:56;99271.53;;;9.35;63.87
47761;BME280;33524;55.434;38.520;2023-04-01T10:28:00;99278.72;;;9.12;64.09
47761;BME280;33524;55.434;38.520;2023-04-01T10:36:51;99286.75;;;9.72;67.66
47761;BME280;33524;55.434;38.520;2023-04-01T10:43:16;99286.25;;;10.48;67.97
47761;BME280;33524;55.434;38.520;2023-04-01T10:49:09;99299.03;;;11.66;59.75
47761;BME280;33524;55.434;38.520;2023-04-01T10:52:30;99285.75;;;11.96;58.85
47761;BME280;33524;55.434;38.520;2023-04-01T10:55:25;99296.28;;;11.86;55.06
47761;BME280;33524;55.434;38.520;2023-04-01T11:01:19;99301.25;;;12.62;57.05
47761;BME280;33524;55.434;38.520;2023-04-01T11:07:45;99303.88;;;11.99;58.88
47761;BME280;33524;55.434;38.520;2023-04-01T11:13:43;99293.19;;;12.82;53.73
47761;BME280;33524;55.434;38.520;2023-04-01T11:17:15;99287.50;;;13.39;62.50
47761;BME280;33524;55.434;38.520;2023-04-01T11:23:19;99286.38;;;13.49;54.33
47761;BME280;33524;55.434;38.520;2023-04-01T11:26:06;99289.50;;;14.30;55.84
47761;BME280;33524;55.434;38.520;2023-04-01T11:29:03;99286.84;;;13.19;55.75
47761;BME280;33524;55.434;38.520;2023-04-01T11:31:58;99299.50;;;12.89;52.13
47761;BME280;33524;55.434;38.520;2023-04-01T11:34:43;99318.34;;;12.58;53.73
47761;BME280;33524;55.434;38.520;2023-04-01T11:37:21;99302.53;;;12.40;52.21
47761;BME280;33524;55.434;38.520;2023-04-01T11:40:10;99325.38;;;12.67;52.53
47761;BME280;33524;55.434;38.520;2023-04-01T11:43:07;99326.09;;;11.86;54.56
47761;BME280;33524;55.434;38.520;2023-04-01T11:55:19;99332.28;;;12.32;52.02
47761;BME280;33524;55.434;38.520;2023-04-01T11:58:13;99315.69;;;11.57;52.11
47761;BME280;33524;55.434;38.520;2023-04-01T12:01:17;99320.22;;;11.18;54.75
47761;BME280;33524;55.434;38.520;2023-04-01T12:05:17;99316.53;;;11.58;61.03
47761;BME280;33524;55.434;38.520;2023-04-01T12:18:57;99323.63;;;12.40;56.64
47761;BME280;33524;55.434;38.520;2023-04-01T12:24:44;99325.59;;;11.83;55.41
47761;BME280;33524;55.434;38.520;2023-04-01T12:30:32;99331.31;;;11.11;52.02
47761;BME280;33524;55.434;38.520;2023-04-01T12:33:37;99330.91;;;11.06;51.91
47761;BME280;33524;55.434;38.520;2023-04-01T12:36:45;99328.50;;;11.32;53.03
47761;BME280;33524;55.434;38.520;2023-04-01T12:39:33;99329.84;;;11.84;56.90
47761;BME280;33524;55.434;38.520;2023-04-01T12:45:07;99340.81;;;11.51;50.56
47761;BME280;33524;55.434;38.520;2023-04-01T12:51:00;99329.41;;;11.04;50.12
47761;BME280;33524;55.434;38.520;2023-04-01T12:53:44;99335.50;;;11.04;59.37
47761;BME280;33524;55.434;38.520;2023-04-01T12:56:44;99333.25;;;10.51;52.79
47761;BME280;33524;55.434;38.520;2023-04-01T13:16:11;99358.81;;;9.37;58.18
47761;BME280;33524;55.434;38.520;2023-04-01T13:19:08;99333.00;;;9.42;60.36
47761;BME280;33524;55.434;38.520;2023-04-01T13:22:10;99346.13;;;9.42;59.46
47761;BME280;33524;55.434;38.520;2023-04-01T13:24:56;99346.84;;;9.02;59.54
47761;BME280;33524;55.434;38.520;2023-04-01T13:43:04;99353.09;;;8.90;71.84
47761;BME280;33524;55.434;38.520;2023-04-01T13:46:07;99361.06;;;8.67;63.69
47761;BME280;33524;55.434;38.520;2023-04-01T13:54:26;99374.09;;;8.46;64.79
47761;BME280;33524;55.434;38.520;2023-04-01T13:57:33;99379.78;;;8.63;65.15
47761;BME280;33524;55.434;38.520;2023-04-01T14:03:47;99381.34;;;8.54;68.47
47761;BME280;33524;55.434;38.520;2023-04-01T14:06:28;99382.97;;;8.99;71.00
47761;BME280;33524;55.434;38.520;2023-04-01T14:12:02;99372.75;;;9.17;67.53
47761;BME280;33524;55.434;38.520;2023-04-01T14:14:55;99379.59;;;8.87;67.49
47761;BME280;33524;55.434;38.520;2023-04-01T14:20:20;99389.31;;;8.96;64.81
47761;BME280;33524;55.434;38.520;2023-04-01T14:23:25;99390.09;;;8.76;69.73
47761;BME280;33524;55.434;38.520;2023-04-01T14:25:41;99395.53;;;8.95;66.83
47761;BME280;33524;55.434;38.520;2023-04-01T14:31:12;99395.50;;;8.40;71.24
47761;BME280;33524;55.434;38.520;2023-04-01T14:34:50;99400.56;;;8.43;71.36
47761;BME280;33524;55.434;38.520;2023-04-01T14:44:46;99419.00;;;8.08;70.15
47761;BME280;33524;55.434;38.520;2023-04-01T14:47:39;99413.28;;;7.92;69.87
47761;BME280;33524;55.434;38.520;2023-04-01T14:50:16;99418.16;;;8.07;72.39
47761;BME280;33524;55.434;38.520;2023-04-01T14:53:11;99420.88;;;7.72;70.95
47761;BME280;33524;55.434;38.520;2023-04-01T14:55:50;99420.66;;;7.86;74.50
47761;BME280;33524;55.434;38.520;2023-04-01T14:58:20;99420.44;;;8.01;74.12
47761;BME280;33524;55.434;38.520;2023-04-01T15:04:16;99435.19;;;8.24;72.96
47761;BME280;33524;55.434;38.520;2023-04-01T15:17:29;99446.31;;;7.59;72.66
47761;BME280;33524;55.434;38.520;2023-04-01T15:19:23;99445.19;;;7.97;72.53
47761;BME280;33524;55.434;38.520;2023-04-01T15:25:19;99457.09;;;8.01;73.55
47761;BME280;33524;55.434;38.520;2023-04-01T15:28:04;99456.69;;;7.83;73.26
47761;BME280;33524;55.434;38.520;2023-04-01T15:33:49;99458.69;;;7.57;73.36
47761;BME280;33524;55.434;38.520;2023-04-01T15:36:41;99428.69;;;7.50;74.86
47761;BME280;33524;55.434;38.520;2023-04-01T15:39:16;99465.28;;;7.38;73.77
47761;BME280;33524;55.434;38.520;2023-04-01T15:45:02;99451.09;;;7.30;75.17
47761;BME280;33524;55.434;38.520;2023-04-01T15:47:57;99470.34;;;7.53;74.18
47761;BME280;33524;55.434;38.520;2023-04-01T15:50:48;99465.72;;;7.79;73.89
47761;BME280;33524;55.434;38.520;2023-04-01T15:53:35;99472.25;;;7.62;74.40
47761;BME280;33524;55.434;38.520;2023-04-01T15:59:29;99490.09;;;7.08;75.04
47761;BME280;33524;55.434;38.520;2023-04-01T16:02:23;99473.53;;;7.21;76.07
47761;BME280;33524;55.434;38.520;2023-04-01T16:05:46;99486.38;;;7.00;76.93
47761;BME280;33524;55.434;38.520;2023-04-01T16:09:36;99498.34;;;6.91;77.26
47761;BME280;33524;55.434;38.520;2023-04-01T16:11:18;99494.41;;;7.10;77.03
47761;BME280;33524;55.434;38.520;2023-04-01T16:14:11;99493.50;;;6.98;76.62
47761;BME280;33524;55.434;38.520;2023-04-01T16:19:52;99494.44;;;7.21;76.46
47761;BME280;33524;55.434;38.520;2023-04-01T16:22:30;99508.44;;;7.44;75.07
47761;BME280;33524;55.434;38.520;2023-04-01T16:31:07;99476.91;;;6.62;76.62
47761;BME280;33524;55.434;38.520;2023-04-01T16:33:50;99511.09;;;7.20;76.14
47761;BME280;33524;55.434;38.520;2023-04-01T16:36:28;99515.38;;;6.97;76.84
47761;BME280;33524;55.434;38.520;2023-04-01T16:39:35;99517.22;;;7.07;76.85
47761;BME280;33524;55.434;38.520;2023-04-01T16:42:38;99512.09;;;7.06;76.21
47761;BME280;33524;55.434;38.520;2023-04-01T16:45:36;99517.69;;;7.13;75.97
47761;BME280;33524;55.434;38.520;2023-04-01T16:48:13;99526.13;;;6.92;77.21
47761;BME280;33524;55.434;38.520;2023-04-01T16:51:02;99527.38;;;6.99;76.97
47761;BME280;33524;55.434;38.520;2023-04-01T16:53:41;99533.12;;;7.28;75.51
47761;BME280;33524;55.434;38.520;2023-04-01T16:56:36;99530.03;;;6.86;77.18
47761;BME280;33524;55.434;38.520;2023-04-01T16:59:13;99532.41;;;6.90;77.17
47761;BME280;33524;55.434;38.520;2023-04-01T17:01:50;99533.66;;;6.47;79.12
47761;BME280;33524;55.434;38.520;2023-04-01T17:04:34;99520.78;;;6.57;78.61
47761;BME280;33524;55.434;38.520;2023-04-01T17:10:25;99541.81;;;7.05;76.77
47761;BME280;33524;55.434;38.520;2023-04-01T17:13:23;99540.75;;;7.07;76.30
47761;BME280;33524;55.434;38.520;2023-04-01T17:16:25;99550.31;;;6.83;77.48
47761;BME280;33524;55.434;38.520;2023-04-01T17:19:29;99552.53;;;6.76;78.06
47761;BME280;33524;55.434;38.520;2023-04-01T17:28:38;99560.28;;;6.52;79.36
47761;BME280;33524;55.434;38.520;2023-04-01T17:31:17;99569.94;;;6.39;80.17
47761;BME280;33524;55.434;38.520;2023-04-01T17:34:13;99574.91;;;6.67;78.87
47761;BME280;33524;55.434;38.520;2023-04-01T17:36:59;99560.22;;;6.41;79.40
47761;BME280;33524;55.434;38.520;2023-04-01T17:39:46;99575.34;;;6.36;80.78
47761;BME280;33524;55.434;38.520;2023-04-01T17:45:31;99582.25;;;6.50;79.90
47761;BME280;33524;55.434;38.520;2023-04-01T17:51:24;99551.22;;;6.32;79.88
47761;BME280;33524;55.434;38.520;2023-04-01T17:57:39;99588.31;;;6.37;81.00
47761;BME280;33524;55.434;38.520;2023-04-01T18:00:23;99571.81;;;6.37;79.72
47761;BME280;33524;55.434;38.520;2023-04-01T18:03:42;99599.59;;;6.38;81.09
47761;BME280;33524;55.434;38.520;2023-04-01T18:06:36;99587.16;;;6.29;81.47
47761;BME280;33524;55.434;38.520;2023-04-01T18:09:32;99610.34;;;6.20;81.43
47761;BME280;33524;55.434;38.520;2023-04-01T18:15:37;99605.97;;;5.94;84.39
47761;BME280;33524;55.434;38.520;2023-04-01T18:24:11;99624.84;;;5.84;85.22
47761;BME280;33524;55.434;38.520;2023-04-01T18:26:48;99619.72;;;6.23;82.73
47761;BME280;33524;55.434;38.520;2023-04-01T18:29:34;99622.75;;;6.17;83.09
47761;BME280;33524;55.434;38.520;2023-04-01T18:32:17;99619.13;;;6.45;80.51
47761;BME280;33524;55.434;38.520;2023-04-01T18:34:59;99622.78;;;6.55;79.30
47761;BME280;33524;55.434;38.520;2023-04-01T18:43:33;99626.66;;;6.37;81.28
47761;BME280;33524;55.434;38.520;2023-04-01T18:46:41;99632.16;;;6.32;81.66
47761;BME280;33524;55.434;38.520;2023-04-01T18:49:41;99632.03;;;6.08;83.02
47761;BME280;33524;55.434;38.520;2023-04-01T18:52:17;99639.88;;;6.08;82.49
47761;BME280;33524;55.434;38.520;2023-04-01T18:55:20;99639.41;;;6.01;83.88
47761;BME280;33524;55.434;38.520;2023-04-01T18:57:51;99644.25;;;5.93;84.49
47761;BME280;33524;55.434;38.520;2023-04-01T19:00:39;99647.91;;;5.91;84.66
47761;BME280;33524;55.434;38.520;2023-04-01T19:03:25;99647.91;;;5.91;84.47
47761;BME280;33524;55.434;38.520;2023-04-01T19:06:06;99645.97;;;5.67;86.61
47761;BME280;33524;55.434;38.520;2023-04-01T19:08:40;99644.88;;;6.11;82.55
47761;BME280;33524;55.434;38.520;2023-04-01T19:11:36;99638.78;;;5.71;85.61
47761;BME280;33524;55.434;38.520;2023-04-01T19:14:24;99650.09;;;5.84;85.29
47761;BME280;33524;55.434;38.520;2023-04-01T19:17:44;99641.00;;;5.77;85.42
47761;BME280;33524;55.434;38.520;2023-04-01T19:20:08;99645.44;;;5.89;84.84